sensor_id;sensor_type;location;lat;lon;timestamp;pressure;altitude;pressure_sealevel;temperature;humidity
24858;BME280;12935;50.782;6.074;2023-05-12T00:00:16;99382.47;;;11.96;100.00
24858;BME280;12935;50.782;6.074;2023-05-12T00:02:42;99375.47;;;11.91;100.00
24858;BME280;12935;50.782;6.074;2023-05-12T00:05:08;99379.75;;;11.92;100.00
24858;BME280;12935;50.782;6.074;2023-05-12T00:07:33;99374.25;;;11.96;100.00
24858;BME280;12935;50.782;6.074;2023-05-12T00:09:59;99375.06;;;11.93;100.00
24858;BME280;12935;50.782;6.074;2023-05-12T00:12:24;99376.56;;;11.98;100.00
24858;BME280;12935;50.782;6.074;2023-05-12T00:14:49;99377.16;;;12.16;100.00
24858;BME280;12935;50.782;6.074;2023-05-12T00:17:15;99372.81;;;12.22;100.00
24858;BME280;12935;50.782;6.074;2023-05-12T00:19:40;99376.19;;;12.33;100.00
24858;BME280;12935;50.782;6.074;2023-05-12T00:22:11;99382.81;;;12.36;100.00
24858;BME280;12935;50.782;6.074;2023-05-12T00:24:36;99377.06;;;12.26;100.00
24858;BME280;12935;50.782;6.074;2023-05-12T00:27:01;99384.97;;;12.17;100.00
24858;BME280;12935;50.782;6.074;2023-05-12T00:29:27;99380.31;;;12.14;100.00
24858;BME280;12935;50.782;6.074;2023-05-12T00:31:54;99374.13;;;12.07;100.00
24858;BME280;12935;50.782;6.074;2023-05-12T00:34:19;99371.41;;;12.07;100.00
24858;BME280;12935;50.782;6.074;2023-05-12T00:36:45;99370.66;;;12.03;100.00
24858;BME280;12935;50.782;6.074;2023-05-12T00:39:11;99375.38;;;11.99;100.00
24858;BME280;12935;50.782;6.074;2023-05-12T00:41:36;99368.31;;;12.01;100.00
24858;BME280;12935;50.782;6.074;2023-05-12T00:44:02;99372.94;;;12.08;100.00
24858;BME280;12935;50.782;6.074;2023-05-12T00:46:27;99364.72;;;12.11;100.00
24858;BME280;12935;50.782;6.074;2023-05-12T00:48:52;99361.59;;;12.09;100.00
24858;BME280;12935;50.782;6.074;2023-05-12T00:51:18;99362.78;;;12.08;100.00
24858;BME280;12935;50.782;6.074;2023-05-12T00:53:44;99352.25;;;12.03;100.00
24858;BME280;12935;50.782;6.074;2023-05-12T00:56:10;99356.91;;;12.06;100.00
24858;BME280;12935;50.782;6.074;2023-05-12T00:58:36;99357.28;;;12.08;100.00
24858;BME280;12935;50.782;6.074;2023-05-12T01:01:01;99350.84;;;12.25;100.00
24858;BME280;12935;50.782;6.074;2023-05-12T01:03:26;99351.97;;;12.28;100.00
24858;BME280;12935;50.782;6.074;2023-05-12T01:08:42;99348.06;;;12.29;100.00
24858;BME280;12935;50.782;6.074;2023-05-12T01:11:08;99344.53;;;12.28;100.00
24858;BME280;12935;50.782;6.074;2023-05-12T01:13:33;99339.41;;;12.34;100.00
24858;BME280;12935;50.782;6.074;2023-05-12T01:15:59;99339.81;;;12.33;100.00
24858;BME280;12935;50.782;6.074;2023-05-12T01:18:27;99335.91;;;12.30;100.00
24858;BME280;12935;50.782;6.074;2023-05-12T01:20:54;99335.03;;;12.40;100.00
24858;BME280;12935;50.782;6.074;2023-05-12T01:23:23;99334.81;;;12.24;100.00
24858;BME280;12935;50.782;6.074;2023-05-12T01:25:51;99330.28;;;12.10;100.00
24858;BME280;12935;50.782;6.074;2023-05-12T01:28:17;99330.31;;;12.07;100.00
24858;BME280;12935;50.782;6.074;2023-05-12T01:30:43;99323.13;;;12.20;100.00
24858;BME280;12935;50.782;6.074;2023-05-12T01:33:09;99322.00;;;12.14;100.00
24858;BME280;12935;50.782;6.074;2023-05-12T01:35:35;99318.56;;;12.10;100.00
24858;BME280;12935;50.782;6.074;2023-05-12T01:38:00;99321.22;;;12.13;100.00
24858;BME280;12935;50.782;6.074;2023-05-12T01:40:25;99326.63;;;12.20;100.00
24858;BME280;12935;50.782;6.074;2023-05-12T01:42:51;99322.88;;;12.07;100.00
24858;BME280;12935;50.782;6.074;2023-05-12T01:45:16;99324.13;;;11.99;100.00
24858;BME280;12935;50.782;6.074;2023-05-12T01:47:41;99318.31;;;11.93;100.00
24858;BME280;12935;50.782;6.074;2023-05-12T01:50:07;99318.69;;;11.96;100.00
24858;BME280;12935;50.782;6.074;2023-05-12T01:52:32;99312.84;;;11.93;100.00
24858;BME280;12935;50.782;6.074;2023-05-12T01:54:58;99311.72;;;11.87;100.00
24858;BME280;12935;50.782;6.074;2023-05-12T01:57:23;99298.44;;;11.86;100.00
24858;BME280;12935;50.782;6.074;2023-05-12T01:59:48;99310.97;;;11.87;100.00
24858;BME280;12935;50.782;6.074;2023-05-12T02:02:13;99304.31;;;11.84;100.00
24858;BME280;12935;50.782;6.074;2023-05-12T02:04:39;99300.03;;;11.83;100.00
24858;BME280;12935;50.782;6.074;2023-05-12T02:07:04;99305.88;;;11.85;100.00
24858;BME280;12935;50.782;6.074;2023-05-12T02:09:29;99295.34;;;11.84;100.00
24858;BME280;12935;50.782;6.074;2023-05-12T02:11:55;99296.50;;;11.86;100.00
24858;BME280;12935;50.782;6.074;2023-05-12T02:14:20;99294.13;;;11.88;100.00
24858;BME280;12935;50.782;6.074;2023-05-12T02:16:45;99293.34;;;11.88;100.00
24858;BME280;12935;50.782;6.074;2023-05-12T02:19:14;99287.06;;;11.91;100.00
24858;BME280;12935;50.782;6.074;2023-05-12T02:21:39;99288.63;;;11.92;100.00
24858;BME280;12935;50.782;6.074;2023-05-12T02:24:05;99295.66;;;11.93;100.00
24858;BME280;12935;50.782;6.074;2023-05-12T02:26:30;99288.25;;;11.90;100.00
24858;BME280;12935;50.782;6.074;2023-05-12T02:28:56;99283.53;;;11.90;100.00
24858;BME280;12935;50.782;6.074;2023-05-12T02:31:21;99282.72;;;11.93;100.00
24858;BME280;12935;50.782;6.074;2023-05-12T02:33:46;99285.47;;;11.93;100.00
24858;BME280;12935;50.782;6.074;2023-05-12T02:36:12;99274.97;;;11.88;100.00
24858;BME280;12935;50.782;6.074;2023-05-12T02:38:37;99283.53;;;11.90;100.00
24858;BME280;12935;50.782;6.074;2023-05-12T02:41:04;99271.44;;;11.88;100.00
24858;BME280;12935;50.782;6.074;2023-05-12T02:43:29;99272.22;;;11.88;100.00
24858;BME280;12935;50.782;6.074;2023-05-12T02:45:55;99277.31;;;11.86;100.00
24858;BME280;12935;50.782;6.074;2023-05-12T02:48:20;99272.63;;;11.87;100.00
24858;BME280;12935;50.782;6.074;2023-05-12T02:50:45;99266.34;;;11.90;100.00
24858;BME280;12935;50.782;6.074;2023-05-12T02:53:11;99259.66;;;11.94;100.00
24858;BME280;12935;50.782;6.074;2023-05-12T02:55:36;99263.88;;;11.99;100.00
24858;BME280;12935;50.782;6.074;2023-05-12T02:58:02;99261.59;;;11.94;100.00
24858;BME280;12935;50.782;6.074;2023-05-12T03:00:27;99260.06;;;11.93;100.00
24858;BME280;12935;50.782;6.074;2023-05-12T03:02:52;99264.75;;;11.92;100.00
24858;BME280;12935;50.782;6.074;2023-05-12T03:05:18;99257.69;;;11.95;100.00
24858;BME280;12935;50.782;6.074;2023-05-12T03:07:43;99259.19;;;12.00;100.00
24858;BME280;12935;50.782;6.074;2023-05-12T03:10:09;99254.47;;;12.00;100.00
24858;BME280;12935;50.782;6.074;2023-05-12T03:12:35;99258.41;;;11.99;100.00
24858;BME280;12935;50.782;6.074;2023-05-12T03:15:01;99253.69;;;12.00;100.00
24858;BME280;12935;50.782;6.074;2023-05-12T03:17:28;99243.13;;;12.02;100.00
24858;BME280;12935;50.782;6.074;2023-05-12T03:19:53;99253.25;;;12.05;100.00
24858;BME280;12935;50.782;6.074;2023-05-12T03:22:19;99252.06;;;12.06;100.00
24858;BME280;12935;50.782;6.074;2023-05-12T03:24:44;99246.63;;;12.02;100.00
24858;BME280;12935;50.782;6.074;2023-05-12T03:27:10;99239.22;;;11.99;100.00
24858;BME280;12935;50.782;6.074;2023-05-12T03:29:36;99234.59;;;11.96;100.00
24858;BME280;12935;50.782;6.074;2023-05-12T03:32:01;99222.16;;;11.88;100.00
24858;BME280;12935;50.782;6.074;2023-05-12T03:34:27;99235.78;;;11.95;100.00
24858;BME280;12935;50.782;6.074;2023-05-12T03:36:52;99222.13;;;11.91;100.00
24858;BME280;12935;50.782;6.074;2023-05-12T03:39:17;99219.75;;;11.93;100.00
24858;BME280;12935;50.782;6.074;2023-05-12T03:41:42;99213.56;;;11.86;100.00
24858;BME280;12935;50.782;6.074;2023-05-12T03:44:08;99212.50;;;11.80;100.00
24858;BME280;12935;50.782;6.074;2023-05-12T03:46:34;99212.16;;;11.71;100.00
24858;BME280;12935;50.782;6.074;2023-05-12T03:48:59;99216.47;;;11.68;100.00
24858;BME280;12935;50.782;6.074;2023-05-12T03:51:25;99211.81;;;11.65;100.00
24858;BME280;12935;50.782;6.074;2023-05-12T03:53:50;99214.91;;;11.71;100.00
24858;BME280;12935;50.782;6.074;2023-05-12T03:56:16;99216.81;;;11.77;100.00
24858;BME280;12935;50.782;6.074;2023-05-12T03:58:42;99216.41;;;11.75;100.00
24858;BME280;12935;50.782;6.074;2023-05-12T04:01:08;99217.59;;;11.78;100.00
24858;BME280;12935;50.782;6.074;2023-05-12T04:03:33;99226.22;;;11.73;100.00
24858;BME280;12935;50.782;6.074;2023-05-12T04:06:02;99220.00;;;11.69;100.00
24858;BME280;12935;50.782;6.074;2023-05-12T04:08:28;99228.16;;;11.76;100.00
24858;BME280;12935;50.782;6.074;2023-05-12T04:10:55;99230.09;;;11.75;100.00
24858;BME280;12935;50.782;6.074;2023-05-12T04:13:21;99225.81;;;11.74;100.00
24858;BME280;12935;50.782;6.074;2023-05-12T04:15:47;99231.66;;;11.80;100.00
24858;BME280;12935;50.782;6.074;2023-05-12T04:18:13;99225.41;;;11.79;100.00
24858;BME280;12935;50.782;6.074;2023-05-12T04:20:38;99223.47;;;11.76;100.00
24858;BME280;12935;50.782;6.074;2023-05-12T04:23:03;99215.69;;;11.71;100.00
24858;BME280;12935;50.782;6.074;2023-05-12T04:25:29;99232.09;;;11.71;100.00
24858;BME280;12935;50.782;6.074;2023-05-12T04:27:54;99223.53;;;11.66;100.00
24858;BME280;12935;50.782;6.074;2023-05-12T04:30:19;99232.59;;;11.63;100.00
24858;BME280;12935;50.782;6.074;2023-05-12T04:32:46;99225.59;;;11.58;100.00
24858;BME280;12935;50.782;6.074;2023-05-12T04:35:12;99226.03;;;11.53;100.00
24858;BME280;12935;50.782;6.074;2023-05-12T04:37:38;99233.47;;;11.52;100.00
24858;BME280;12935;50.782;6.074;2023-05-12T04:40:04;99227.59;;;11.54;100.00
24858;BME280;12935;50.782;6.074;2023-05-12T04:42:31;99244.22;;;11.70;100.00
24858;BME280;12935;50.782;6.074;2023-05-12T04:44:56;99241.06;;;11.79;100.00
24858;BME280;12935;50.782;6.074;2023-05-12T04:47:21;99242.91;;;11.85;100.00
24858;BME280;12935;50.782;6.074;2023-05-12T04:49:47;99248.78;;;11.84;100.00
24858;BME280;12935;50.782;6.074;2023-05-12T04:52:12;99254.47;;;12.00;100.00
24858;BME280;12935;50.782;6.074;2023-05-12T04:54:37;99252.94;;;11.99;100.00
24858;BME280;12935;50.782;6.074;2023-05-12T04:57:03;99257.59;;;12.02;100.00
24858;BME280;12935;50.782;6.074;2023-05-12T04:59:28;99260.53;;;11.84;100.00
24858;BME280;12935;50.782;6.074;2023-05-12T05:01:55;99265.69;;;11.79;100.00
24858;BME280;12935;50.782;6.074;2023-05-12T05:04:21;99272.09;;;11.62;100.00
24858;BME280;12935;50.782;6.074;2023-05-12T05:06:46;99273.00;;;11.48;100.00
24858;BME280;12935;50.782;6.074;2023-05-12T05:09:11;99274.38;;;11.67;100.00
24858;BME280;12935;50.782;6.074;2023-05-12T05:11:37;99271.22;;;11.68;100.00
24858;BME280;12935;50.782;6.074;2023-05-12T05:14:02;99283.06;;;11.58;100.00
24858;BME280;12935;50.782;6.074;2023-05-12T05:16:27;99288.59;;;11.51;100.00
24858;BME280;12935;50.782;6.074;2023-05-12T05:18:53;99289.03;;;11.46;100.00
24858;BME280;12935;50.782;6.074;2023-05-12T05:21:18;99294.44;;;11.53;100.00
24858;BME280;12935;50.782;6.074;2023-05-12T05:23:43;99293.28;;;11.50;100.00
24858;BME280;12935;50.782;6.074;2023-05-12T05:26:09;99290.59;;;11.47;100.00
24858;BME280;12935;50.782;6.074;2023-05-12T05:28:35;99289.34;;;11.51;100.00
24858;BME280;12935;50.782;6.074;2023-05-12T05:31:00;99290.13;;;11.55;100.00
24858;BME280;12935;50.782;6.074;2023-05-12T05:33:26;99290.53;;;11.50;100.00
24858;BME280;12935;50.782;6.074;2023-05-12T05:35:51;99286.19;;;11.56;100.00
24858;BME280;12935;50.782;6.074;2023-05-12T05:38:17;99287.69;;;11.65;100.00
24858;BME280;12935;50.782;6.074;2023-05-12T05:40:42;99292.03;;;11.62;100.00
24858;BME280;12935;50.782;6.074;2023-05-12T05:43:07;99287.00;;;11.53;100.00
24858;BME280;12935;50.782;6.074;2023-05-12T05:45:33;99288.97;;;11.53;100.00
24858;BME280;12935;50.782;6.074;2023-05-12T05:47:58;99285.84;;;11.51;100.00
24858;BME280;12935;50.782;6.074;2023-05-12T05:50:24;99295.22;;;11.50;100.00
24858;BME280;12935;50.782;6.074;2023-05-12T05:52:49;99290.91;;;11.52;100.00
24858;BME280;12935;50.782;6.074;2023-05-12T05:55:14;99281.34;;;11.75;100.00
24858;BME280;12935;50.782;6.074;2023-05-12T05:57:40;99285.19;;;11.81;100.00
24858;BME280;12935;50.782;6.074;2023-05-12T06:00:05;99299.31;;;11.79;100.00
24858;BME280;12935;50.782;6.074;2023-05-12T06:02:34;99300.38;;;11.89;100.00
24858;BME280;12935;50.782;6.074;2023-05-12T06:04:59;99302.59;;;12.01;100.00
24858;BME280;12935;50.782;6.074;2023-05-12T06:07:25;99302.91;;;12.10;100.00
24858;BME280;12935;50.782;6.074;2023-05-12T06:09:52;99313.88;;;12.07;100.00
24858;BME280;12935;50.782;6.074;2023-05-12T06:12:18;99318.19;;;12.08;100.00
24858;BME280;12935;50.782;6.074;2023-05-12T06:14:43;99310.03;;;12.01;100.00
24858;BME280;12935;50.782;6.074;2023-05-12T06:17:08;99323.50;;;12.22;100.00
24858;BME280;12935;50.782;6.074;2023-05-12T06:19:34;99324.94;;;12.30;100.00
24858;BME280;12935;50.782;6.074;2023-05-12T06:21:59;99327.13;;;12.46;100.00
24858;BME280;12935;50.782;6.074;2023-05-12T06:24:24;99324.97;;;12.60;100.00
24858;BME280;12935;50.782;6.074;2023-05-12T06:26:50;99323.41;;;12.59;100.00
24858;BME280;12935;50.782;6.074;2023-05-12T06:29:15;99329.94;;;12.73;100.00
24858;BME280;12935;50.782;6.074;2023-05-12T06:31:40;99333.69;;;12.82;100.00
24858;BME280;12935;50.782;6.074;2023-05-12T06:34:06;99344.22;;;12.87;100.00
24858;BME280;12935;50.782;6.074;2023-05-12T06:36:31;99328.78;;;12.97;100.00
24858;BME280;12935;50.782;6.074;2023-05-12T06:38:57;99343.97;;;13.05;100.00
24858;BME280;12935;50.782;6.074;2023-05-12T06:41:23;99338.91;;;13.04;100.00
24858;BME280;12935;50.782;6.074;2023-05-12T06:43:49;99346.28;;;13.07;100.00
24858;BME280;12935;50.782;6.074;2023-05-12T06:46:15;99353.28;;;13.11;100.00
24858;BME280;12935;50.782;6.074;2023-05-12T06:48:40;99349.50;;;13.02;100.00
24858;BME280;12935;50.782;6.074;2023-05-12T06:51:06;99347.53;;;13.02;100.00
24858;BME280;12935;50.782;6.074;2023-05-12T06:53:31;99353.69;;;13.10;100.00
24858;BME280;12935;50.782;6.074;2023-05-12T06:55:57;99345.97;;;13.01;100.00
24858;BME280;12935;50.782;6.074;2023-05-12T06:58:23;99353.16;;;12.91;100.00
24858;BME280;12935;50.782;6.074;2023-05-12T07:00:48;99359.75;;;12.97;100.00
24858;BME280;12935;50.782;6.074;2023-05-12T07:03:13;99353.03;;;13.02;100.00
24858;BME280;12935;50.782;6.074;2023-05-12T07:05:39;99361.97;;;13.06;100.00
24858;BME280;12935;50.782;6.074;2023-05-12T07:08:05;99349.38;;;13.09;100.00
24858;BME280;12935;50.782;6.074;2023-05-12T07:10:30;99360.44;;;13.05;100.00
24858;BME280;12935;50.782;6.074;2023-05-12T07:12:57;99361.09;;;13.13;100.00
24858;BME280;12935;50.782;6.074;2023-05-12T07:15:23;99351.25;;;13.19;100.00
24858;BME280;12935;50.782;6.074;2023-05-12T07:17:48;99362.41;;;13.31;100.00
24858;BME280;12935;50.782;6.074;2023-05-12T07:20:13;99370.00;;;13.47;100.00
24858;BME280;12935;50.782;6.074;2023-05-12T07:22:39;99360.13;;;13.53;100.00
24858;BME280;12935;50.782;6.074;2023-05-12T07:25:05;99365.91;;;13.59;100.00
24858;BME280;12935;50.782;6.074;2023-05-12T07:27:31;99373.25;;;13.65;100.00
24858;BME280;12935;50.782;6.074;2023-05-12T07:29:56;99366.03;;;13.75;100.00
24858;BME280;12935;50.782;6.074;2023-05-12T07:32:22;99354.56;;;13.80;100.00
24858;BME280;12935;50.782;6.074;2023-05-12T07:34:47;99363.34;;;13.95;100.00
24858;BME280;12935;50.782;6.074;2023-05-12T07:37:12;99357.84;;;13.95;100.00
24858;BME280;12935;50.782;6.074;2023-05-12T07:39:38;99356.72;;;13.92;100.00
24858;BME280;12935;50.782;6.074;2023-05-12T07:42:04;99371.69;;;13.88;100.00
24858;BME280;12935;50.782;6.074;2023-05-12T07:44:29;99367.34;;;13.90;100.00
24858;BME280;12935;50.782;6.074;2023-05-12T07:46:55;99365.66;;;13.96;100.00
24858;BME280;12935;50.782;6.074;2023-05-12T07:49:20;99373.28;;;14.09;100.00
24858;BME280;12935;50.782;6.074;2023-05-12T07:51:47;99369.09;;;14.24;100.00
24858;BME280;12935;50.782;6.074;2023-05-12T07:54:12;99368.97;;;14.31;100.00
24858;BME280;12935;50.782;6.074;2023-05-12T07:56:37;99371.09;;;14.00;100.00
24858;BME280;12935;50.782;6.074;2023-05-12T07:59:03;99369.41;;;14.06;100.00
24858;BME280;12935;50.782;6.074;2023-05-12T08:01:28;99377.84;;;13.95;100.00
24858;BME280;12935;50.782;6.074;2023-05-12T08:03:53;99379.09;;;13.91;100.00
24858;BME280;12935;50.782;6.074;2023-05-12T08:06:19;99375.94;;;13.92;100.00
24858;BME280;12935;50.782;6.074;2023-05-12T08:08:44;99378.28;;;13.94;100.00
24858;BME280;12935;50.782;6.074;2023-05-12T08:11:09;99381.66;;;14.01;100.00
24858;BME280;12935;50.782;6.074;2023-05-12T08:13:38;99385.63;;;14.00;100.00
24858;BME280;12935;50.782;6.074;2023-05-12T08:16:03;99387.03;;;13.85;100.00
24858;BME280;12935;50.782;6.074;2023-05-12T08:18:29;99388.47;;;13.70;100.00
24858;BME280;12935;50.782;6.074;2023-05-12T08:20:54;99391.88;;;13.78;100.00
24858;BME280;12935;50.782;6.074;2023-05-12T08:23:20;99392.78;;;13.94;100.00
24858;BME280;12935;50.782;6.074;2023-05-12T08:25:45;99394.56;;;14.04;100.00
24858;BME280;12935;50.782;6.074;2023-05-12T08:28:12;99397.91;;;14.16;100.00
24858;BME280;12935;50.782;6.074;2023-05-12T08:30:38;99396.94;;;14.26;100.00
24858;BME280;12935;50.782;6.074;2023-05-12T08:33:03;99401.50;;;14.13;100.00
24858;BME280;12935;50.782;6.074;2023-05-12T08:35:29;99401.75;;;13.98;100.00
24858;BME280;12935;50.782;6.074;2023-05-12T08:37:55;99408.66;;;14.07;100.00
24858;BME280;12935;50.782;6.074;2023-05-12T08:40:22;99402.78;;;14.04;100.00
24858;BME280;12935;50.782;6.074;2023-05-12T08:45:36;99415.66;;;14.11;100.00
24858;BME280;12935;50.782;6.074;2023-05-12T08:48:04;99409.94;;;14.22;100.00
24858;BME280;12935;50.782;6.074;2023-05-12T08:50:31;99408.69;;;14.26;100.00
24858;BME280;12935;50.782;6.074;2023-05-12T08:52:57;99413.56;;;14.38;100.00
24858;BME280;12935;50.782;6.074;2023-05-12T08:55:23;99408.53;;;14.57;100.00
24858;BME280;12935;50.782;6.074;2023-05-12T08:57:48;99418.63;;;14.83;100.00
24858;BME280;12935;50.782;6.074;2023-05-12T09:00:14;99416.69;;;15.20;100.00
24858;BME280;12935;50.782;6.074;2023-05-12T09:02:41;99417.50;;;15.36;100.00
24858;BME280;12935;50.782;6.074;2023-05-12T09:05:10;99418.75;;;15.32;100.00
24858;BME280;12935;50.782;6.074;2023-05-12T09:07:39;99420.59;;;15.38;100.00
24858;BME280;12935;50.782;6.074;2023-05-12T09:10:13;99418.28;;;15.53;100.00
24858;BME280;12935;50.782;6.074;2023-05-12T09:12:40;99423.56;;;15.64;100.00
24858;BME280;12935;50.782;6.074;2023-05-12T09:15:07;99427.72;;;15.72;100.00
24858;BME280;12935;50.782;6.074;2023-05-12T09:17:35;99421.78;;;15.90;100.00
24858;BME280;12935;50.782;6.074;2023-05-12T09:20:00;99430.13;;;16.02;100.00
24858;BME280;12935;50.782;6.074;2023-05-12T09:22:31;99426.75;;;16.11;100.00
24858;BME280;12935;50.782;6.074;2023-05-12T09:24:59;99439.66;;;16.14;100.00
24858;BME280;12935;50.782;6.074;2023-05-12T09:27:28;99434.84;;;16.18;100.00
24858;BME280;12935;50.782;6.074;2023-05-12T09:29:54;99443.47;;;16.20;100.00
24858;BME280;12935;50.782;6.074;2023-05-12T09:32:33;99444.66;;;16.19;100.00
24858;BME280;12935;50.782;6.074;2023-05-12T09:35:03;99436.13;;;16.13;100.00
24858;BME280;12935;50.782;6.074;2023-05-12T09:37:30;99448.44;;;16.09;100.00
24858;BME280;12935;50.782;6.074;2023-05-12T09:40:00;99445.69;;;16.09;100.00
24858;BME280;12935;50.782;6.074;2023-05-12T09:42:28;99449.91;;;16.13;100.00
24858;BME280;12935;50.782;6.074;2023-05-12T09:44:58;99450.34;;;16.12;100.00
24858;BME280;12935;50.782;6.074;2023-05-12T09:47:26;99452.16;;;15.86;100.00
24858;BME280;12935;50.782;6.074;2023-05-12T09:49:52;99444.25;;;15.72;100.00
24858;BME280;12935;50.782;6.074;2023-05-12T09:52:19;99455.16;;;15.75;100.00
24858;BME280;12935;50.782;6.074;2023-05-12T09:54:46;99457.50;;;15.93;100.00
24858;BME280;12935;50.782;6.074;2023-05-12T09:57:14;99461.63;;;16.18;100.00
24858;BME280;12935;50.782;6.074;2023-05-12T09:59:40;99462.41;;;16.18;100.00
24858;BME280;12935;50.782;6.074;2023-05-12T10:02:08;99462.22;;;15.93;100.00
24858;BME280;12935;50.782;6.074;2023-05-12T10:04:36;99461.38;;;15.96;100.00
24858;BME280;12935;50.782;6.074;2023-05-12T10:07:09;99460.69;;;15.92;100.00
24858;BME280;12935;50.782;6.074;2023-05-12T10:09:37;99461.03;;;15.94;100.00
24858;BME280;12935;50.782;6.074;2023-05-12T10:12:06;99483.50;;;16.08;100.00
24858;BME280;12935;50.782;6.074;2023-05-12T10:14:33;99484.53;;;15.98;100.00
24858;BME280;12935;50.782;6.074;2023-05-12T10:16:59;99483.00;;;16.13;100.00
24858;BME280;12935;50.782;6.074;2023-05-12T10:19:25;99477.28;;;16.37;100.00
24858;BME280;12935;50.782;6.074;2023-05-12T10:21:51;99478.47;;;16.52;100.00
24858;BME280;12935;50.782;6.074;2023-05-12T10:24:19;99484.41;;;16.96;100.00
24858;BME280;12935;50.782;6.074;2023-05-12T10:26:45;99493.00;;;17.39;100.00
24858;BME280;12935;50.782;6.074;2023-05-12T10:29:11;99484.53;;;17.46;100.00
24858;BME280;12935;50.782;6.074;2023-05-12T10:31:37;99491.13;;;17.49;100.00
24858;BME280;12935;50.782;6.074;2023-05-12T10:34:03;99490.47;;;17.45;100.00
24858;BME280;12935;50.782;6.074;2023-05-12T10:36:28;99483.50;;;17.28;100.00
24858;BME280;12935;50.782;6.074;2023-05-12T10:38:55;99492.19;;;17.13;100.00
24858;BME280;12935;50.782;6.074;2023-05-12T10:41:31;99492.69;;;17.50;100.00
24858;BME280;12935;50.782;6.074;2023-05-12T10:43:58;99486.53;;;17.71;100.00
24858;BME280;12935;50.782;6.074;2023-05-12T10:46:24;99490.59;;;18.17;100.00
24858;BME280;12935;50.782;6.074;2023-05-12T10:51:22;99491.06;;;18.63;100.00
24858;BME280;12935;50.782;6.074;2023-05-12T10:54:05;99481.59;;;18.26;100.00
24858;BME280;12935;50.782;6.074;2023-05-12T10:59:07;99486.28;;;17.53;100.00
24858;BME280;12935;50.782;6.074;2023-05-12T11:01:36;99483.94;;;17.51;100.00
24858;BME280;12935;50.782;6.074;2023-05-12T11:04:16;99486.75;;;17.90;100.00
24858;BME280;12935;50.782;6.074;2023-05-12T11:06:42;99490.81;;;18.23;100.00
24858;BME280;12935;50.782;6.074;2023-05-12T11:09:08;99485.97;;;18.02;100.00
24858;BME280;12935;50.782;6.074;2023-05-12T11:11:35;99484.00;;;17.90;100.00
24858;BME280;12935;50.782;6.074;2023-05-12T11:14:01;99491.06;;;17.91;100.00
24858;BME280;12935;50.782;6.074;2023-05-12T11:16:26;99485.91;;;18.74;100.00
24858;BME280;12935;50.782;6.074;2023-05-12T11:21:28;99483.59;;;20.18;89.35
24858;BME280;12935;50.782;6.074;2023-05-12T11:23:54;99483.03;;;20.78;93.35
24858;BME280;12935;50.782;6.074;2023-05-12T11:26:19;99487.66;;;21.18;97.63
24858;BME280;12935;50.782;6.074;2023-05-12T11:28:45;99496.66;;;20.76;98.66
24858;BME280;12935;50.782;6.074;2023-05-12T11:31:16;99496.53;;;20.21;96.41
24858;BME280;12935;50.782;6.074;2023-05-12T11:33:42;99483.88;;;19.40;100.00
24858;BME280;12935;50.782;6.074;2023-05-12T11:36:08;99503.69;;;19.30;100.00
24858;BME280;12935;50.782;6.074;2023-05-12T11:38:33;99501.81;;;19.48;100.00
24858;BME280;12935;50.782;6.074;2023-05-12T11:40:59;99505.56;;;19.11;95.87
24858;BME280;12935;50.782;6.074;2023-05-12T11:43:24;99496.66;;;19.69;95.28
24858;BME280;12935;50.782;6.074;2023-05-12T11:45:52;99497.59;;;20.15;94.18
24858;BME280;12935;50.782;6.074;2023-05-12T11:48:19;99498.34;;;20.06;93.75
24858;BME280;12935;50.782;6.074;2023-05-12T11:50:45;99484.50;;;20.06;95.08
24858;BME280;12935;50.782;6.074;2023-05-12T11:53:13;99483.25;;;20.16;95.77
24858;BME280;12935;50.782;6.074;2023-05-12T11:55:55;99504.59;;;20.28;93.55
24858;BME280;12935;50.782;6.074;2023-05-12T11:58:22;99498.47;;;20.43;96.17
24858;BME280;12935;50.782;6.074;2023-05-12T12:00:52;99507.31;;;20.19;87.99
24858;BME280;12935;50.782;6.074;2023-05-12T12:03:18;99494.72;;;19.78;86.43
24858;BME280;12935;50.782;6.074;2023-05-12T12:05:55;99510.25;;;19.67;92.57
24858;BME280;12935;50.782;6.074;2023-05-12T12:08:21;99514.31;;;19.53;98.57
24858;BME280;12935;50.782;6.074;2023-05-12T12:10:46;99512.75;;;19.52;99.30
24858;BME280;12935;50.782;6.074;2023-05-12T12:13:18;99520.88;;;19.46;96.40
24858;BME280;12935;50.782;6.074;2023-05-12T12:15:44;99518.03;;;19.59;96.57
24858;BME280;12935;50.782;6.074;2023-05-12T12:18:09;99527.72;;;19.54;93.68
24858;BME280;12935;50.782;6.074;2023-05-12T12:20:34;99529.53;;;19.26;93.88
24858;BME280;12935;50.782;6.074;2023-05-12T12:23:00;99536.53;;;19.93;92.93
24858;BME280;12935;50.782;6.074;2023-05-12T12:25:25;99533.63;;;20.46;91.54
24858;BME280;12935;50.782;6.074;2023-05-12T12:27:50;99528.84;;;20.64;88.01
24858;BME280;12935;50.782;6.074;2023-05-12T12:30:17;99527.78;;;21.17;86.46
24858;BME280;12935;50.782;6.074;2023-05-12T12:32:43;99535.19;;;21.38;82.96
24858;BME280;12935;50.782;6.074;2023-05-12T12:35:09;99538.91;;;21.26;78.59
24858;BME280;12935;50.782;6.074;2023-05-12T12:37:35;99531.47;;;21.14;78.44
24858;BME280;12935;50.782;6.074;2023-05-12T12:40:01;99533.81;;;20.88;79.60
24858;BME280;12935;50.782;6.074;2023-05-12T12:42:33;99530.88;;;20.55;83.95
24858;BME280;12935;50.782;6.074;2023-05-12T12:44:58;99545.50;;;20.46;86.86
24858;BME280;12935;50.782;6.074;2023-05-12T12:47:23;99540.22;;;20.30;83.52
24858;BME280;12935;50.782;6.074;2023-05-12T12:49:49;99550.31;;;20.15;82.22
24858;BME280;12935;50.782;6.074;2023-05-12T12:52:14;99543.56;;;19.85;80.51
24858;BME280;12935;50.782;6.074;2023-05-12T12:54:39;99547.28;;;19.82;83.07
24858;BME280;12935;50.782;6.074;2023-05-12T12:57:05;99545.28;;;19.82;82.59